San Diego, California
Traffic Map
Current Weather Conditions
San Diego, California
Scattered Clouds
Scattered Clouds
69°
Feels Like: 69°
Wind Chill: 69° Ceiling: Unl
Heat Index: 69° Visibility: 10mi
Dew Point: 62° Wind: 0mph
Humidity: 78% Direction: ° ()
Pressure: 29.93in Gusts: 0mph
Raw Report DataKSAN 300451Z 00000KT 10SM FEW011 SCT170 21/17 A2993 RMK AO2 SLP133 T02060167 $
Traffic Incident Summary
Active as of:
Severity:
Category:
InformationThere was an issue retrieving the traffic information for this location. Please try a different location or try again shortly.
Advertisements
Track Severe Weather on mobile